createdAt,value
2019-03-09T00:02:55.193Z,999.94
2019-03-09T00:07:55.310Z,999.75
2019-03-09T00:12:54.537Z,999.73
2019-03-09T00:17:55.176Z,999.60
2019-03-09T00:22:54.638Z,999.50
2019-03-09T00:27:54.195Z,999.45
2019-03-09T00:32:53.230Z,999.37
2019-03-09T00:37:54.180Z,999.39
2019-03-09T00:42:54.230Z,999.39
2019-03-09T00:47:53.668Z,999.39
2019-03-09T00:52:53.243Z,999.31
2019-03-09T00:57:52.251Z,999.20
2019-03-09T01:02:52.167Z,999.36
2019-03-09T01:07:51.328Z,999.22
2019-03-09T01:12:51.242Z,999.11
2019-03-09T01:17:52.318Z,998.95
2019-03-09T01:22:51.139Z,998.86
2019-03-09T01:27:50.288Z,998.78
2019-03-09T01:32:51.241Z,998.62
2019-03-09T01:37:51.207Z,998.75
2019-03-09T01:42:51.199Z,998.49
2019-03-09T01:47:50.242Z,998.41
2019-03-09T01:52:49.276Z,998.20
2019-03-09T01:57:49.183Z,998.07
2019-03-09T02:02:49.247Z,998.09
2019-03-09T02:07:48.298Z,997.96
2019-03-09T02:12:47.186Z,997.96
2019-03-09T02:17:47.216Z,997.83
2019-03-09T02:22:46.294Z,997.75
2019-03-09T02:27:45.502Z,997.75
2019-03-09T02:32:45.378Z,997.67
2019-03-09T02:37:45.216Z,997.68
2019-03-09T02:42:44.739Z,997.51
2019-03-09T02:47:45.225Z,997.46
2019-03-09T02:52:45.299Z,997.56
2019-03-09T02:57:45.468Z,997.51
2019-03-09T03:02:44.236Z,997.53
2019-03-09T03:07:44.290Z,997.46
2019-03-09T03:12:44.233Z,997.53
2019-03-09T03:17:43.306Z,997.62
2019-03-09T03:22:43.247Z,997.35
2019-03-09T03:27:44.197Z,997.51
2019-03-09T03:32:44.322Z,997.68
2019-03-09T03:37:44.208Z,997.76
2019-03-09T03:42:43.200Z,997.60
2019-03-09T03:47:44.291Z,997.70
2019-03-09T03:52:44.257Z,997.52
2019-03-09T03:57:44.245Z,997.58
2019-03-09T04:02:44.238Z,997.60
2019-03-09T04:07:43.432Z,997.71
2019-03-09T04:12:44.263Z,997.67
2019-03-09T04:17:43.273Z,997.78
2019-03-09T04:22:43.271Z,997.83
2019-03-09T04:27:43.388Z,997.92
2019-03-09T04:32:44.249Z,998.10
2019-03-09T04:37:44.345Z,998.21
2019-03-09T04:42:44.260Z,998.40
2019-03-09T04:47:44.271Z,998.48
2019-03-09T04:52:44.293Z,998.48
2019-03-09T04:57:43.611Z,998.40
2019-03-09T05:02:43.308Z,998.35
2019-03-09T05:07:42.657Z,998.67
2019-03-09T05:12:43.269Z,998.91
2019-03-09T05:17:43.256Z,998.83
2019-03-09T05:22:42.510Z,998.86
2019-03-09T05:27:42.251Z,998.85
2019-03-09T05:32:42.239Z,998.96
2019-03-09T05:37:43.323Z,999.04
2019-03-09T05:42:41.262Z,999.22
2019-03-09T05:47:40.256Z,999.30
2019-03-09T05:52:41.369Z,999.39
2019-03-09T05:57:41.477Z,999.24
2019-03-09T06:02:41.371Z,999.27
2019-03-09T06:07:40.534Z,999.32
2019-03-09T06:12:40.270Z,999.18
2019-03-09T06:17:39.441Z,999.08
2019-03-09T06:22:38.562Z,999.23
2019-03-09T06:27:37.515Z,999.31
2019-03-09T06:32:36.433Z,999.39
2019-03-09T06:37:36.290Z,999.59
2019-03-09T06:42:35.310Z,999.91
2019-03-09T06:47:34.351Z,1000.10
2019-03-09T06:52:33.272Z,1000.08
2019-03-09T06:57:32.271Z,1000.14
2019-03-09T07:02:31.549Z,999.98
2019-03-09T07:07:31.361Z,1000.25
2019-03-09T07:12:32.272Z,1000.05
2019-03-09T07:17:32.291Z,1000.24
2019-03-09T07:22:31.427Z,1000.35
2019-03-09T07:27:31.361Z,1000.30
2019-03-09T07:32:32.300Z,1000.41
2019-03-09T07:37:31.620Z,1000.20
2019-03-09T07:42:31.318Z,1000.18
2019-03-09T07:47:31.373Z,1000.13
2019-03-09T07:52:31.398Z,1000.60
2019-03-09T07:57:31.446Z,1000.69
2019-03-09T08:02:31.481Z,1000.63
2019-03-09T08:07:30.305Z,1000.53
2019-03-09T08:12:29.412Z,1000.74
2019-03-09T08:17:29.258Z,1000.49
2019-03-09T08:22:29.260Z,1000.44
2019-03-09T08:27:28.587Z,1000.41
2019-03-09T08:32:28.304Z,1000.52
2019-03-09T08:37:28.302Z,1000.52
2019-03-09T08:42:28.297Z,1000.55
2019-03-09T08:47:28.305Z,1000.57
2019-03-09T08:52:28.381Z,1000.34
2019-03-09T08:57:29.439Z,1000.40
2019-03-09T09:02:29.512Z,1000.35
2019-03-09T09:07:28.778Z,1000.57
2019-03-09T09:12:28.343Z,1000.66
2019-03-09T09:17:28.378Z,1000.67
2019-03-09T09:22:29.301Z,1000.72
2019-03-09T09:27:29.449Z,1000.60
2019-03-09T09:32:29.316Z,1000.68
2019-03-09T09:37:28.335Z,1000.63
2019-03-09T09:42:29.561Z,1000.48
2019-03-09T09:47:29.351Z,1000.39
2019-03-09T09:52:29.295Z,1000.42
2019-03-09T09:57:29.397Z,1000.53
2019-03-09T10:02:29.277Z,1000.85
2019-03-09T10:07:29.290Z,1000.87
2019-03-09T10:12:28.271Z,1000.92
2019-03-09T10:17:28.291Z,1000.87
2019-03-09T10:22:27.712Z,1000.75
2019-03-09T10:27:26.503Z,1000.86
2019-03-09T10:32:27.277Z,1000.86
2019-03-09T10:37:27.340Z,1000.81
2019-03-09T10:42:27.301Z,1000.75
2019-03-09T10:47:26.352Z,1000.49
2019-03-09T10:52:26.462Z,1000.30
2019-03-09T10:57:26.479Z,1000.41
2019-03-09T11:02:26.329Z,1000.15
2019-03-09T11:07:25.552Z,1000.18
2019-03-09T11:12:25.314Z,999.87
2019-03-09T11:17:26.323Z,999.76
2019-03-09T11:22:26.459Z,999.77
2019-03-09T11:27:25.322Z,999.65
2019-03-09T11:32:24.576Z,999.50
2019-03-09T11:37:25.359Z,999.60
2019-03-09T11:42:25.332Z,1000.03
2019-03-09T11:47:24.303Z,999.85
2019-03-09T11:52:23.411Z,999.88
2019-03-09T11:57:23.048Z,999.56
2019-03-09T12:02:22.410Z,999.08
2019-03-09T12:07:21.416Z,999.33
2019-03-09T12:12:21.303Z,998.78
2019-03-09T12:17:21.390Z,998.61
2019-03-09T12:22:21.319Z,998.58
2019-03-09T12:27:22.333Z,998.59
2019-03-09T12:32:22.331Z,998.29
2019-03-09T12:37:22.323Z,998.27
2019-03-09T12:42:22.339Z,998.21
2019-03-09T12:47:23.293Z,998.05
2019-03-09T12:52:23.334Z,997.96
2019-03-09T12:57:22.542Z,998.11
2019-03-09T13:02:21.494Z,997.81
2019-03-09T13:07:21.346Z,997.56
2019-03-09T13:12:20.722Z,997.85
2019-03-09T13:17:20.275Z,997.30
2019-03-09T13:22:19.479Z,997.13
2019-03-09T13:27:18.273Z,996.99
2019-03-09T13:32:17.631Z,997.16
2019-03-09T13:37:16.356Z,997.09
2019-03-09T13:42:16.358Z,996.90
2019-03-09T13:47:15.303Z,996.71
2019-03-09T13:52:14.395Z,996.54
2019-03-09T13:57:13.574Z,996.45
2019-03-09T14:02:13.287Z,997.06
2019-03-09T14:07:12.582Z,997.37
2019-03-09T14:12:11.472Z,997.12
2019-03-09T14:17:11.520Z,997.06
2019-03-09T14:22:11.286Z,997.03
2019-03-09T14:27:10.333Z,996.87
2019-03-09T14:32:09.467Z,996.63
2019-03-09T14:37:09.313Z,996.63
2019-03-09T14:42:09.300Z,996.49
2019-03-09T14:47:08.516Z,996.31
2019-03-09T14:52:09.297Z,996.85
2019-03-09T14:57:09.330Z,996.77
2019-03-09T15:02:09.392Z,996.92
2019-03-09T15:07:08.257Z,997.05
2019-03-09T15:12:07.654Z,996.92
2019-03-09T15:17:06.666Z,996.62
2019-03-09T15:22:06.602Z,996.56
2019-03-09T15:27:05.495Z,996.58
2019-03-09T15:32:05.301Z,996.48
2019-03-09T15:37:04.555Z,996.43
2019-03-09T15:42:04.368Z,996.98
2019-03-09T15:47:05.827Z,997.16
2019-03-09T15:52:04.336Z,997.04
2019-03-09T15:57:03.327Z,997.68
2019-03-09T16:02:02.318Z,997.87
2019-03-09T16:07:02.526Z,998.07
2019-03-09T16:12:01.673Z,998.07
2019-03-09T16:17:01.475Z,998.31
2019-03-09T16:22:00.580Z,998.28
2019-03-09T16:27:00.352Z,998.97
2019-03-09T16:31:59.708Z,999.80
2019-03-09T16:36:59.299Z,999.91
2019-03-09T16:41:58.492Z,999.90
2019-03-09T16:51:56.340Z,999.97
2019-03-09T16:56:55.699Z,1000.13
2019-03-09T17:01:54.329Z,1000.24
2019-03-09T17:06:53.329Z,1000.29
2019-03-09T17:11:53.317Z,1000.60
2019-03-09T17:16:53.354Z,1000.86
2019-03-09T17:21:54.405Z,1001.08
2019-03-09T17:26:54.348Z,1001.10
2019-03-09T17:31:53.360Z,1001.30
2019-03-09T17:36:52.359Z,1001.40
2019-03-09T17:41:52.365Z,1001.62
2019-03-09T17:46:51.339Z,1001.72
2019-03-09T17:51:51.533Z,1001.88
2019-03-09T17:56:50.512Z,1002.17
2019-03-09T18:01:51.320Z,1002.17
2019-03-09T18:06:52.030Z,1002.35
2019-03-09T18:11:50.705Z,1002.46
2019-03-09T18:16:53.028Z,1002.76
2019-03-09T18:21:50.354Z,1002.78
2019-03-09T18:26:50.321Z,1002.86
2019-03-09T18:31:50.345Z,1003.12
2019-03-09T18:36:50.359Z,1003.15
2019-03-09T18:41:49.380Z,1003.20
2019-03-09T18:46:49.336Z,1003.36
2019-03-09T18:51:49.401Z,1003.41
2019-03-09T18:56:49.566Z,1003.49
2019-03-09T19:01:49.524Z,1003.54
2019-03-09T19:06:49.732Z,1003.62
2019-03-09T19:11:49.329Z,1003.77
2019-03-09T19:16:49.359Z,1003.85
2019-03-09T19:21:49.362Z,1003.82
2019-03-09T19:26:48.760Z,1003.89
2019-03-09T19:36:48.469Z,1003.89
2019-03-09T19:41:47.645Z,1003.94
2019-03-09T19:46:46.606Z,1003.89
2019-03-09T19:51:47.421Z,1003.88
2019-03-09T19:56:48.487Z,1003.88
2019-03-09T20:01:47.379Z,1003.91
2019-03-09T20:06:48.719Z,1003.85
2019-03-09T20:11:48.548Z,1003.96
2019-03-09T20:16:48.374Z,1003.88
2019-03-09T20:26:50.570Z,1003.93
2019-03-09T20:31:50.362Z,1003.80
2019-03-09T20:41:50.775Z,1004.02
2019-03-09T20:46:50.452Z,1003.99
2019-03-09T20:51:50.634Z,1004.14
2019-03-09T20:56:49.576Z,1004.05
2019-03-09T21:01:49.387Z,1004.19
2019-03-09T21:06:48.774Z,1004.20
2019-03-09T21:11:47.601Z,1004.24
2019-03-09T21:16:47.618Z,1004.17
2019-03-09T21:21:47.387Z,1004.13
2019-03-09T21:26:46.681Z,1004.15
2019-03-09T21:31:46.488Z,1004.14
2019-03-09T21:36:45.413Z,1004.05
2019-03-09T21:41:45.472Z,1004.19
2019-03-09T21:46:45.468Z,1004.24
2019-03-09T21:51:44.474Z,1004.15
2019-03-09T21:56:43.438Z,1004.14
2019-03-09T22:01:43.447Z,1004.21
2019-03-09T22:06:42.446Z,1004.26
2019-03-09T22:11:42.886Z,1004.37
2019-03-09T22:16:42.846Z,1004.28
2019-03-09T22:21:42.365Z,1004.29
2019-03-09T22:26:41.889Z,1004.29
2019-03-09T22:31:40.897Z,1004.27
2019-03-09T22:36:40.867Z,1004.21
2019-03-09T22:41:41.909Z,1004.13
2019-03-09T22:46:42.077Z,1004.21
2019-03-09T22:51:41.175Z,1004.11
2019-03-09T22:56:41.096Z,1004.05
2019-03-09T23:01:40.451Z,1004.14
2019-03-09T23:06:39.923Z,1004.08
2019-03-09T23:11:39.903Z,1004.09
2019-03-09T23:16:39.915Z,1004.04
2019-03-09T23:21:39.939Z,1004.03
2019-03-09T23:26:40.058Z,1003.90
2019-03-09T23:31:39.834Z,1003.88
2019-03-09T23:36:39.905Z,1003.85
2019-03-09T23:41:40.989Z,1003.85
2019-03-09T23:46:41.887Z,1003.80
2019-03-09T23:51:42.958Z,1003.76
2019-03-09T23:56:42.145Z,1003.73
